Time;durP1;ratioP1;P1;durP2;ratioP2;P2;SDS_P1;SDS_P2;PMS_P1;PMS_P2;Temp;Humidity;BMP_temperature;BMP_pressure;BME280_temperature;BME280_humidity;BME280_pressure;Samples;Min_cycle;Max_cycle;Signal;HPM_P1;HPM_P2
2022/10/25 00:00:04;;;;;;;22.95;10.80;;;12.00;99.90;;;;;;6211991;23;20048;-86
2022/10/25 00:02:33;;;;;;;22.50;9.80;;;12.00;99.90;;;;;;6211761;23;20341;-85
2022/10/25 00:04:59;;;;;;;24.38;9.80;;;11.90;99.90;;;;;;6211657;23;20039;-85
2022/10/25 00:07:24;;;;;;;23.23;10.80;;;11.90;99.90;;;;;;6209927;23;20333;-85
2022/10/25 00:09:50;;;;;;;22.48;10.30;;;11.90;99.90;;;;;;6209331;23;20016;-86
2022/10/25 00:12:16;;;;;;;24.33;10.63;;;11.90;99.90;;;;;;6211237;23;20352;-86
2022/10/25 00:14:42;;;;;;;23.35;10.40;;;11.90;99.90;;;;;;6210737;23;20012;-86
2022/10/25 00:17:08;;;;;;;23.63;11.38;;;11.90;99.90;;;;;;6211074;23;20460;-86
2022/10/25 00:19:33;;;;;;;22.20;10.73;;;11.90;99.90;;;;;;6211577;23;20016;-85
2022/10/25 00:21:59;;;;;;;29.98;11.50;;;11.90;99.90;;;;;;6211239;23;20013;-85
2022/10/25 00:24:25;;;;;;;23.52;11.23;;;12.00;99.90;;;;;;6209084;23;20020;-85
2022/10/25 00:26:50;;;;;;;30.77;12.75;;;11.80;99.90;;;;;;6211184;23;20496;-86
2022/10/25 00:29:16;;;;;;;30.25;13.60;;;11.80;99.90;;;;;;6211066;23;20039;-86
2022/10/25 00:31:42;;;;;;;24.92;13.07;;;11.80;99.90;;;;;;6209291;23;20043;-86
2022/10/25 00:34:07;;;;;;;30.27;14.85;;;11.90;99.90;;;;;;6209273;23;20217;-86
2022/10/25 00:36:33;;;;;;;30.52;15.18;;;11.90;99.90;;;;;;6214065;23;20039;-85
2022/10/25 00:38:59;;;;;;;29.85;13.80;;;11.90;99.90;;;;;;6241331;23;20344;-86
2022/10/25 00:41:28;;;;;;;32.33;14.35;;;11.90;99.90;;;;;;6241905;23;20360;-86
2022/10/25 00:44:15;;;;;;;31.45;14.90;;;11.90;99.90;;;;;;6214067;23;20070;-86
2022/10/25 00:46:41;;;;;;;28.08;15.25;;;12.00;99.90;;;;;;6240749;23;20012;-86
2022/10/25 00:49:18;;;;;;;29.42;15.80;;;12.00;99.90;;;;;;6241735;23;20020;-86
2022/10/25 00:51:52;;;;;;;32.53;14.43;;;12.10;99.90;;;;;;6241504;23;20011;-85
2022/10/25 00:54:24;;;;;;;31.40;16.33;;;12.10;99.90;;;;;;6241441;23;20451;-86
2022/10/25 00:56:51;;;;;;;35.95;16.80;;;12.10;99.90;;;;;;6242065;23;20011;-86
2022/10/25 00:59:25;;;;;;;30.75;16.83;;;12.20;99.90;;;;;;6240336;23;20078;-86
2022/10/25 01:01:52;;;;;;;33.17;17.67;;;12.40;99.90;;;;;;6240929;23;20490;-86
2022/10/25 01:04:23;;;;;;;34.13;17.63;;;12.30;99.90;;;;;;6241528;23;20341;-86
2022/10/25 01:06:50;;;;;;;30.30;15.77;;;12.40;99.90;;;;;;6214497;23;20020;-86
2022/10/25 01:09:22;;;;;;;31.77;15.48;;;12.40;99.90;;;;;;6214365;23;20024;-85
2022/10/25 01:11:48;;;;;;;35.72;16.20;;;12.50;99.90;;;;;;6241808;23;20137;-86
2022/10/25 01:14:15;;;;;;;27.23;14.85;;;12.50;99.90;;;;;;6214025;23;20133;-86
2022/10/25 01:17:03;;;;;;;28.80;16.13;;;12.50;99.90;;;;;;6241567;23;20333;-86
2022/10/25 01:19:56;;;;;;;24.75;14.27;;;12.60;99.90;;;;;;6241302;23;20063;-86
2022/10/25 01:22:40;;;;;;;30.45;15.15;;;12.60;99.90;;;;;;6241189;23;20440;-85
2022/10/25 01:25:15;;;;;;;26.05;15.38;;;12.60;99.90;;;;;;6214553;23;20043;-86
2022/10/25 01:28:11;;;;;;;31.10;15.60;;;12.60;99.90;;;;;;6189203;23;20016;-86
2022/10/25 01:30:57;;;;;;;26.00;15.13;;;12.60;99.90;;;;;;6214453;23;20444;-86
2022/10/25 01:34:01;;;;;;;28.23;15.48;;;12.60;99.90;;;;;;6241547;23;20146;-86
2022/10/25 01:36:45;;;;;;;28.17;14.20;;;12.70;99.90;;;;;;6132142;23;20020;-86
2022/10/25 01:39:50;;;;;;;28.50;15.57;;;12.60;99.90;;;;;;6213751;23;20027;-86
2022/10/25 01:42:25;;;;;;;;;;;12.60;99.90;;;;;;6167394;23;20332;-86
2022/10/25 01:45:03;;;;;;;28.42;13.85;;;12.60;99.90;;;;;;6213783;23;20328;-85
2022/10/25 01:47:35;;;;;;;21.95;13.00;;;12.70;99.90;;;;;;6213519;23;20415;-85
2022/10/25 01:50:13;;;;;;;23.60;13.00;;;12.70;99.90;;;;;;6214347;23;20216;-86
2022/10/25 01:52:39;;;;;;;26.45;14.73;;;12.70;99.90;;;;;;6214038;23;20048;-86
2022/10/25 01:55:09;;;;;;;31.55;14.43;;;12.70;99.90;;;;;;6214604;23;20074;-86
2022/10/25 01:58:00;;;;;;;23.00;14.25;;;12.70;99.90;;;;;;6214234;23;20075;-86
2022/10/25 02:00:29;;;;;;;25.58;13.50;;;12.70;99.90;;;;;;6216065;23;20016;-86
2022/10/25 02:03:10;;;;;;;23.33;12.55;;;12.70;99.90;;;;;;6216232;23;20100;-86
2022/10/25 02:05:58;;;;;;;22.13;12.75;;;12.70;99.90;;;;;;6244007;23;20039;-84
2022/10/25 02:08:40;;;;;;;25.38;13.60;;;12.70;99.90;;;;;;6218403;23;20012;-86
2022/10/25 02:11:44;;;;;;;27.23;14.10;;;12.70;99.90;;;;;;6195526;23;20004;-86
2022/10/25 02:14:44;;;;;;;27.38;13.07;;;12.70;99.90;;;;;;6072207;23;20514;-86
2022/10/25 02:17:22;;;;;;;22.98;13.88;;;12.70;99.90;;;;;;6091068;23;20041;-86
2022/10/25 02:19:56;;;;;;;30.95;12.43;;;12.70;99.90;;;;;;6096955;23;20015;-87
2022/10/25 02:22:26;;;;;;;20.17;12.77;;;12.70;99.90;;;;;;6096813;23;20022;-86
2022/10/25 02:24:53;;;;;;;26.38;13.02;;;12.70;99.90;;;;;;6097171;23;20011;-86
2022/10/25 02:27:22;;;;;;;26.60;13.73;;;12.70;99.90;;;;;;6072435;23;20014;-86
2022/10/25 02:29:48;;;;;;;22.75;13.98;;;12.70;99.90;;;;;;6072107;23;20474;-86
2022/10/25 02:32:14;;;;;;;27.55;14.38;;;12.70;99.90;;;;;;6071976;23;20026;-86
2022/10/25 02:34:40;;;;;;;31.50;15.55;;;12.70;99.90;;;;;;6072059;23;20449;-86
2022/10/25 02:37:06;;;;;;;28.30;14.25;;;12.70;99.90;;;;;;6072216;23;20033;-86
2022/10/25 02:39:33;;;;;;;26.75;14.82;;;12.70;99.90;;;;;;6096939;23;20050;-87
2022/10/25 02:42:02;;;;;;;24.15;14.10;;;12.70;99.90;;;;;;6096653;23;20022;-86
2022/10/25 02:44:27;;;;;;;26.80;14.07;;;12.70;99.90;;;;;;6119555;23;20012;-86
2022/10/25 02:46:53;;;;;;;26.73;14.77;;;12.70;99.90;;;;;;6221457;23;20380;-86
2022/10/25 02:49:19;;;;;;;26.05;14.55;;;12.60;99.90;;;;;;6196239;23;20451;-84
2022/10/25 02:51:44;;;;;;;24.23;14.15;;;12.70;99.90;;;;;;6221219;23;20027;-87
2022/10/25 02:54:10;;;;;;;26.08;14.57;;;12.60;99.90;;;;;;6248183;23;20016;-86
2022/10/25 02:56:36;;;;;;;27.85;15.52;;;12.60;99.90;;;;;;6220311;23;20016;-86
2022/10/25 02:59:02;;;;;;;26.05;15.00;;;12.60;99.90;;;;;;6220196;23;20016;-86
2022/10/25 03:01:28;;;;;;;27.23;13.80;;;12.60;99.90;;;;;;6220429;23;20052;-86
2022/10/25 03:03:54;;;;;;;26.95;14.02;;;12.70;99.90;;;;;;6221257;23;20012;-85
2022/10/25 03:06:19;;;;;;;31.23;14.57;;;12.60;99.90;;;;;;6221163;23;20306;-87
2022/10/25 03:08:45;;;;;;;31.75;15.27;;;12.70;99.90;;;;;;6194969;23;20027;-86
2022/10/25 03:11:12;;;;;;;26.70;14.07;;;12.70;99.90;;;;;;6247874;23;20016;-86
2022/10/25 03:13:38;;;;;;;29.02;15.20;;;12.70;99.90;;;;;;6220362;23;20476;-86
2022/10/25 03:16:04;;;;;;;20.50;12.05;;;12.70;99.90;;;;;;6220805;23;20028;-86
2022/10/25 03:18:30;;;;;;;25.42;12.65;;;12.70;99.90;;;;;;6247633;23;20016;-86
2022/10/25 03:21:01;;;;;;;23.15;12.55;;;12.70;99.90;;;;;;6248242;23;20039;-86
2022/10/25 03:23:27;;;;;;;24.08;12.57;;;12.60;99.90;;;;;;6220849;23;20020;-86
2022/10/25 03:25:55;;;;;;;26.35;12.85;;;12.60;99.90;;;;;;6221816;23;20016;-86
2022/10/25 03:28:21;;;;;;;23.63;12.00;;;12.50;99.90;;;;;;6218819;23;20015;-86
2022/10/25 03:30:47;;;;;;;24.25;11.80;;;12.70;99.90;;;;;;6245938;23;20008;-87
2022/10/25 03:33:13;;;;;;;25.40;12.30;;;12.50;99.90;;;;;;6219094;23;20420;-85
2022/10/25 03:35:38;;;;;;;25.80;13.23;;;12.50;99.90;;;;;;6219409;23;20027;-86
2022/10/25 03:38:04;;;;;;;26.30;13.63;;;12.50;99.90;;;;;;6245303;23;20127;-86
2022/10/25 03:40:30;;;;;;;27.05;13.68;;;12.50;99.90;;;;;;6218672;23;20371;-87
2022/10/25 03:42:56;;;;;;;31.17;15.07;;;12.60;99.90;;;;;;6219933;23;20114;-86
2022/10/25 03:45:21;;;;;;;28.25;14.48;;;12.50;99.90;;;;;;6221069;23;20094;-86
2022/10/25 03:47:47;;;;;;;26.40;14.43;;;12.50;99.90;;;;;;6247252;23;20506;-86
2022/10/25 03:50:13;;;;;;;30.15;15.00;;;12.40;99.90;;;;;;6195745;23;20016;-87
2022/10/25 03:52:39;;;;;;;32.50;14.90;;;12.40;99.90;;;;;;6221112;23;20016;-86
2022/10/25 03:55:06;;;;;;;27.42;15.50;;;12.40;99.90;;;;;;6220396;23;20469;-86
2022/10/25 03:57:31;;;;;;;26.17;14.23;;;12.40;99.90;;;;;;6220441;23;20418;-85
2022/10/25 03:59:58;;;;;;;33.45;14.65;;;12.40;99.90;;;;;;6220115;23;20066;-86
2022/10/25 04:02:25;;;;;;;35.45;15.15;;;12.40;99.90;;;;;;6220104;23;20043;-86
2022/10/25 04:04:51;;;;;;;33.60;14.93;;;12.40;99.90;;;;;;6220365;23;20315;-86
2022/10/25 04:07:17;;;;;;;29.70;14.30;;;12.40;99.90;;;;;;6219963;23;20012;-86
2022/10/25 04:09:43;;;;;;;36.53;14.73;;;12.40;99.90;;;;;;6247863;23;20018;-86
2022/10/25 04:12:09;;;;;;;31.30;13.52;;;12.40;99.90;;;;;;6220787;23;20092;-86
2022/10/25 04:14:34;;;;;;;30.13;14.70;;;12.40;99.90;;;;;;6220816;23;20064;-86
2022/10/25 04:17:00;;;;;;;31.15;12.95;;;12.30;99.90;;;;;;6220569;23;20020;-86
2022/10/25 04:19:26;;;;;;;34.47;14.15;;;12.30;99.90;;;;;;6221070;23;20024;-86
2022/10/25 04:21:51;;;;;;;34.53;13.27;;;12.30;99.90;;;;;;6220203;23;20038;-86
2022/10/25 04:24:17;;;;;;;27.17;12.40;;;12.30;99.90;;;;;;6247337;23;20016;-86
2022/10/25 04:26:42;;;;;;;28.58;13.73;;;12.30;99.90;;;;;;6220690;23;20031;-86
2022/10/25 04:29:10;;;;;;;34.67;13.20;;;12.30;99.90;;;;;;6220672;23;20351;-86
2022/10/25 04:31:35;;;;;;;31.13;13.05;;;12.30;99.90;;;;;;6219838;23;20016;-85
2022/10/25 04:34:01;;;;;;;34.75;13.55;;;12.30;99.90;;;;;;6195503;23;20020;-86
2022/10/25 04:36:28;;;;;;;34.50;13.73;;;12.20;99.90;;;;;;6219650;23;20046;-86
2022/10/25 04:38:54;;;;;;;32.35;13.32;;;12.20;99.90;;;;;;6220236;23;20437;-86
2022/10/25 04:41:20;;;;;;;30.23;13.13;;;12.20;99.90;;;;;;6194937;23;20090;-85
2022/10/25 04:43:47;;;;;;;32.83;13.73;;;12.20;99.90;;;;;;6246811;23;20062;-85
2022/10/25 04:46:13;;;;;;;32.03;13.40;;;12.10;99.90;;;;;;6219872;23;20012;-87
2022/10/25 04:48:40;;;;;;;31.85;14.23;;;12.10;99.90;;;;;;6220545;23;20043;-86
2022/10/25 04:51:07;;;;;;;29.85;12.98;;;12.20;99.90;;;;;;6248225;23;20113;-85
2022/10/25 04:53:33;;;;;;;33.72;13.63;;;12.20;99.90;;;;;;6249144;23;20019;-86
2022/10/25 04:56:05;;;;;;;41.88;14.65;;;12.30;99.90;;;;;;6222457;23;20012;-86
2022/10/25 04:58:31;;;;;;;34.13;14.10;;;12.30;99.90;;;;;;6222041;23;20016;-84
2022/10/25 05:01:00;;;;;;;34.28;14.35;;;12.30;99.90;;;;;;6221560;23;20035;-87
2022/10/25 05:03:26;;;;;;;34.17;13.48;;;12.40;99.90;;;;;;6222890;23;20118;-85
2022/10/25 05:05:52;;;;;;;45.13;16.00;;;12.40;99.90;;;;;;6248231;23;20016;-85
2022/10/25 05:08:17;;;;;;;32.25;14.85;;;12.40;99.90;;;;;;6221716;23;20164;-86
2022/10/25 05:10:43;;;;;;;33.47;15.77;;;12.30;99.90;;;;;;6218395;23;20020;-86
2022/10/25 05:13:09;;;;;;;37.35;14.77;;;12.30;99.90;;;;;;6214201;23;20020;-86
2022/10/25 05:15:34;;;;;;;37.70;14.73;;;12.30;99.90;;;;;;6213333;23;20016;-86
2022/10/25 05:18:00;;;;;;;37.20;14.88;;;12.30;99.90;;;;;;6213816;23;20336;-86
2022/10/25 05:20:27;;;;;;;39.45;15.02;;;12.40;99.90;;;;;;6212615;23;20016;-86
2022/10/25 05:22:52;;;;;;;38.00;16.70;;;12.40;99.90;;;;;;6213877;23;20012;-86
2022/10/25 05:25:19;;;;;;;37.80;15.18;;;12.40;99.90;;;;;;6241343;23;20023;-86
2022/10/25 05:27:44;;;;;;;34.95;15.95;;;12.40;99.90;;;;;;6213133;23;20027;-86
2022/10/25 05:30:10;;;;;;;34.13;14.65;;;12.40;99.90;;;;;;6239088;23;20091;-86
2022/10/25 05:32:36;;;;;;;28.77;13.60;;;12.40;99.90;;;;;;6240467;23;20012;-86
2022/10/25 05:35:02;;;;;;;34.88;16.05;;;12.30;99.90;;;;;;6239859;23;20074;-87
2022/10/25 05:37:28;;;;;;;37.65;15.98;;;12.30;99.90;;;;;;6240068;23;20349;-87
2022/10/25 05:39:53;;;;;;;37.40;14.25;;;12.30;99.90;;;;;;6239521;23;20107;-87
2022/10/25 05:42:19;;;;;;;28.55;14.75;;;12.30;99.90;;;;;;6213826;23;20078;-85
2022/10/25 05:44:44;;;;;;;32.53;15.77;;;12.30;99.90;;;;;;6242325;23;20075;-87
2022/10/25 05:47:11;;;;;;;32.95;16.70;;;12.30;99.90;;;;;;6243330;23;20443;-86
2022/10/25 05:49:39;;;;;;;36.88;16.45;;;12.20;99.90;;;;;;6241880;23;20012;-86
2022/10/25 05:52:08;;;;;;;38.92;15.13;;;12.20;99.90;;;;;;6215029;23;20039;-88
2022/10/25 05:54:34;;;;;;;29.30;13.55;;;12.20;99.90;;;;;;6242149;23;20042;-88
2022/10/25 05:57:00;;;;;;;31.55;14.73;;;12.20;99.90;;;;;;6214826;23;20012;-88
2022/10/25 05:59:25;;;;;;;29.08;14.80;;;12.20;99.90;;;;;;6242730;23;20024;-87
2022/10/25 06:01:51;;;;;;;28.08;13.85;;;12.20;99.90;;;;;;6241605;23;20012;-88
2022/10/25 06:04:17;;;;;;;35.15;14.18;;;12.10;99.90;;;;;;6241469;23;20066;-87
2022/10/25 06:06:44;;;;;;;34.90;14.68;;;12.20;99.90;;;;;;6242355;23;20083;-86
2022/10/25 06:09:11;;;;;;;23.98;12.05;;;12.20;99.90;;;;;;6242632;23;20023;-86
2022/10/25 06:11:37;;;;;;;31.08;13.20;;;12.20;99.90;;;;;;6241489;23;20023;-86
2022/10/25 06:14:03;;;;;;;28.17;13.25;;;12.20;99.90;;;;;;6242355;23;20043;-85
2022/10/25 06:16:29;;;;;;;28.33;13.40;;;12.20;99.90;;;;;;6242121;23;20016;-83
2022/10/25 06:18:55;;;;;;;29.33;11.77;;;12.20;99.90;;;;;;6241493;23;20447;-85
2022/10/25 06:21:24;;;;;;;31.60;12.88;;;12.30;99.90;;;;;;6240899;23;20012;-84
2022/10/25 06:23:51;;;;;;;30.95;12.93;;;12.30;99.90;;;;;;6212888;23;20085;-85
2022/10/25 06:26:19;;;;;;;31.77;12.57;;;12.30;99.90;;;;;;6239774;23;20008;-84
2022/10/25 06:28:45;;;;;;;34.45;12.80;;;12.30;99.90;;;;;;6240280;23;20463;-84
2022/10/25 06:31:13;;;;;;;26.80;12.48;;;12.30;99.90;;;;;;6241951;23;20160;-85
2022/10/25 06:33:39;;;;;;;29.98;12.27;;;12.20;99.90;;;;;;6214895;23;20039;-83
2022/10/25 06:36:09;;;;;;;24.58;11.20;;;12.30;99.90;;;;;;6243298;23;20008;-83
2022/10/25 06:38:34;;;;;;;32.85;10.93;;;12.30;99.90;;;;;;6242148;23;20012;-83
2022/10/25 06:41:03;;;;;;;25.90;11.23;;;12.30;99.90;;;;;;6215301;23;20073;-84
2022/10/25 06:43:29;;;;;;;33.65;11.38;;;12.30;99.90;;;;;;6242679;23;20146;-83
2022/10/25 06:45:55;;;;;;;32.50;11.25;;;12.30;99.90;;;;;;6242542;23;20079;-86
2022/10/25 06:48:21;;;;;;;24.58;10.55;;;12.30;99.90;;;;;;6214859;23;20066;-86
2022/10/25 06:50:48;;;;;;;29.45;10.65;;;12.20;99.90;;;;;;6242182;23;20008;-85
2022/10/25 06:53:13;;;;;;;26.30;10.55;;;12.20;99.90;;;;;;6241647;23;20016;-83
2022/10/25 06:55:39;;;;;;;23.77;10.65;;;12.30;99.90;;;;;;6241627;23;20015;-83
2022/10/25 06:58:05;;;;;;;28.60;10.40;;;12.30;99.90;;;;;;6242382;23;20115;-85
2022/10/25 07:00:30;;;;;;;26.15;9.00;;;12.30;99.90;;;;;;6214875;23;20027;-85
2022/10/25 07:02:58;;;;;;;27.00;10.05;;;12.30;99.90;;;;;;6214513;23;20016;-85
2022/10/25 07:05:24;;;;;;;25.67;9.18;;;12.30;99.90;;;;;;6215253;23;20099;-85
2022/10/25 07:07:50;;;;;;;24.00;10.20;;;12.40;99.90;;;;;;6190340;23;20012;-85
2022/10/25 07:10:16;;;;;;;29.15;9.55;;;12.40;99.90;;;;;;6214911;23;20085;-85
2022/10/25 07:12:42;;;;;;;25.00;9.02;;;12.40;99.90;;;;;;6215326;23;20019;-85
2022/10/25 07:15:08;;;;;;;28.25;9.48;;;12.40;99.90;;;;;;6215322;23;20465;-85
2022/10/25 07:17:34;;;;;;;24.08;9.60;;;12.40;99.90;;;;;;6214715;23;20103;-85
2022/10/25 07:19:59;;;;;;;30.83;9.73;;;12.40;99.90;;;;;;6241769;23;20107;-85
2022/10/25 07:22:25;;;;;;;29.95;10.30;;;12.40;99.90;;;;;;6214788;23;20008;-86
2022/10/25 07:24:51;;;;;;;24.08;9.75;;;12.50;99.90;;;;;;6242032;23;20012;-85
2022/10/25 07:27:17;;;;;;;23.45;9.60;;;12.50;99.90;;;;;;6242294;23;20008;-85
2022/10/25 07:29:43;;;;;;;22.17;9.20;;;12.50;99.90;;;;;;6241207;23;20338;-85
2022/10/25 07:32:09;;;;;;;26.17;9.23;;;12.60;99.90;;;;;;6242385;23;20348;-85
2022/10/25 07:34:35;;;;;;;26.23;9.07;;;12.70;99.90;;;;;;6241728;23;20061;-85
2022/10/25 07:37:00;;;;;;;26.05;10.05;;;12.70;99.90;;;;;;6189443;23;20438;-85
2022/10/25 07:39:26;;;;;;;23.20;8.75;;;12.70;99.90;;;;;;6215093;23;20031;-85
2022/10/25 07:41:52;;;;;;;25.42;9.15;;;12.70;99.90;;;;;;6215015;23;20016;-85
2022/10/25 07:44:19;;;;;;;29.73;10.00;;;12.80;99.90;;;;;;6241785;23;20019;-85
2022/10/25 07:46:44;;;;;;;21.35;8.80;;;12.80;99.90;;;;;;6214952;23;20039;-85
2022/10/25 07:49:10;;;;;;;18.90;8.75;;;12.90;99.90;;;;;;6241947;23;20016;-85
2022/10/25 07:51:36;;;;;;;30.35;10.23;;;12.90;99.90;;;;;;6242020;23;20452;-85
2022/10/25 07:54:01;;;;;;;21.05;9.27;;;12.90;99.90;;;;;;6242220;23;20016;-85
2022/10/25 07:56:29;;;;;;;25.13;10.00;;;12.90;99.90;;;;;;6242030;23;20329;-85
2022/10/25 07:58:55;;;;;;;23.42;9.30;;;13.00;99.90;;;;;;6241121;23;20012;-85
2022/10/25 08:01:23;;;;;;;25.50;8.70;;;13.00;99.90;;;;;;6242083;23;20018;-85
2022/10/25 08:03:49;;;;;;;30.05;9.40;;;13.00;99.90;;;;;;6241408;23;20051;-85
2022/10/25 08:06:15;;;;;;;22.30;9.00;;;13.10;99.90;;;;;;6241021;23;20016;-85
2022/10/25 08:08:40;;;;;;;21.08;8.73;;;13.10;99.90;;;;;;6214919;23;20012;-85
2022/10/25 08:11:07;;;;;;;25.42;8.85;;;13.20;99.90;;;;;;6241885;23;20043;-85
2022/10/25 08:13:34;;;;;;;22.83;8.23;;;13.20;99.90;;;;;;6241111;23;20053;-84
2022/10/25 08:16:00;;;;;;;26.60;9.55;;;13.10;99.90;;;;;;6241945;23;20008;-85
2022/10/25 08:18:26;;;;;;;26.00;9.43;;;13.20;99.90;;;;;;6241225;23;20038;-85
2022/10/25 08:20:51;;;;;;;23.20;8.93;;;13.30;99.90;;;;;;6241734;23;20008;-85
2022/10/25 08:23:17;;;;;;;20.83;9.73;;;13.30;99.90;;;;;;6241895;23;20021;-85
2022/10/25 08:25:43;;;;;;;24.38;9.23;;;13.40;99.90;;;;;;6241830;23;20498;-85
2022/10/25 08:28:08;;;;;;;27.33;8.57;;;13.40;99.90;;;;;;6241589;23;20423;-85
2022/10/25 08:30:34;;;;;;;21.10;8.45;;;13.40;99.90;;;;;;6242202;23;20019;-85
2022/10/25 08:33:00;;;;;;;24.45;9.07;;;13.50;99.90;;;;;;6214411;23;20012;-85
2022/10/25 08:35:25;;;;;;;23.80;8.93;;;13.50;99.90;;;;;;6241500;23;20546;-85
2022/10/25 08:37:51;;;;;;;22.55;9.30;;;13.60;99.90;;;;;;6241392;23;20354;-85
2022/10/25 08:40:25;;;;;;;19.90;8.70;;;13.60;99.90;;;;;;6241346;23;20095;-85
2022/10/25 08:43:15;;;;;;;27.25;10.15;;;13.60;99.90;;;;;;6213715;23;20009;-85
2022/10/25 08:45:53;;;;;;;25.40;9.57;;;13.60;99.90;;;;;;6241334;23;20016;-85
2022/10/25 08:48:25;;;;;;;23.27;9.00;;;13.70;99.90;;;;;;6241744;23;20023;-84
2022/10/25 08:50:53;;;;;;;26.92;10.02;;;13.70;99.90;;;;;;6241367;23;20011;-85
2022/10/25 08:53:26;;;;;;;20.13;9.30;;;13.70;99.90;;;;;;6240986;23;20087;-85
2022/10/25 08:55:54;;;;;;;22.15;9.43;;;13.70;99.90;;;;;;6214397;23;20088;-85
2022/10/25 08:58:27;;;;;;;19.00;9.05;;;13.80;99.90;;;;;;6240338;23;20012;-85
2022/10/25 09:00:53;;;;;;;23.35;8.95;;;13.80;99.90;;;;;;6241269;23;20050;-85
2022/10/25 09:03:24;;;;;;;19.08;9.15;;;13.90;99.90;;;;;;6241402;23;20069;-85
2022/10/25 09:05:59;;;;;;;22.13;8.93;;;14.00;99.90;;;;;;6241124;23;20012;-85
2022/10/25 09:08:43;;;;;;;20.65;8.40;;;14.00;99.90;;;;;;6241449;23;20087;-85
2022/10/25 09:11:38;;;;;;;25.50;9.15;;;14.10;99.90;;;;;;6241526;23;20087;-85
2022/10/25 09:14:12;;;;;;;21.88;9.40;;;14.20;99.90;;;;;;6214034;23;20015;-85
2022/10/25 09:16:50;;;;;;;23.45;8.63;;;14.30;99.90;;;;;;6240980;23;20449;-85
2022/10/25 09:19:21;;;;;;;18.38;8.90;;;14.30;99.90;;;;;;6214626;23;20008;-85
2022/10/25 09:21:55;;;;;;;29.45;9.43;;;14.30;99.90;;;;;;6240999;23;20008;-85
2022/10/25 09:24:28;;;;;;;18.27;8.10;;;14.30;99.90;;;;;;6240932;23;20437;-85
2022/10/25 09:26:59;;;;;;;25.05;7.93;;;14.20;99.90;;;;;;6213191;23;20053;-85
2022/10/25 09:29:34;;;;;;;19.95;7.97;;;14.30;99.90;;;;;;6214397;23;20027;-85
2022/10/25 09:32:03;;;;;;;27.00;8.50;;;14.40;99.90;;;;;;6240852;23;20016;-85
2022/10/25 09:34:31;;;;;;;19.58;7.47;;;14.40;99.90;;;;;;6241265;23;20070;-85
2022/10/25 09:37:26;;;;;;;18.17;6.55;;;14.60;99.90;;;;;;6213743;23;20087;-85
2022/10/25 09:39:55;;;;;;;17.90;6.68;;;14.70;99.90;;;;;;6213537;23;20070;-85
2022/10/25 09:42:31;;;;;;;18.02;6.50;;;14.70;99.90;;;;;;6240534;23;20367;-85
2022/10/25 09:45:03;;;;;;;22.60;6.05;;;14.80;99.90;;;;;;6241312;23;20062;-85
2022/10/25 09:47:42;;;;;;;19.73;5.32;;;14.80;99.90;;;;;;6241369;23;20020;-85
2022/10/25 09:50:21;;;;;;;13.45;5.05;;;14.80;99.90;;;;;;6240685;23;20023;-85
2022/10/25 09:53:16;;;;;;;17.20;5.30;;;15.00;99.90;;;;;;6241413;23;20432;-85
2022/10/25 09:55:58;;;;;;;17.20;4.80;;;15.10;99.90;;;;;;6240862;23;20392;-85
2022/10/25 09:58:25;;;;;;;17.08;4.60;;;15.20;99.90;;;;;;6214291;23;20047;-85
2022/10/25 10:00:52;;;;;;;16.73;5.28;;;15.40;99.90;;;;;;6188355;23;20329;-85
2022/10/25 10:03:19;;;;;;;15.02;4.68;;;15.40;99.90;;;;;;6240731;23;20444;-85
2022/10/25 10:05:53;;;;;;;15.32;4.70;;;15.40;99.90;;;;;;6213621;23;20020;-85
2022/10/25 10:08:19;;;;;;;18.20;5.22;;;15.40;99.90;;;;;;6241314;23;20020;-85
2022/10/25 10:10:47;;;;;;;14.65;4.93;;;15.40;99.90;;;;;;6213179;23;20083;-85
2022/10/25 10:13:39;;;;;;;16.30;5.57;;;15.50;99.90;;;;;;6213489;23;20016;-85
2022/10/25 10:16:22;;;;;;;16.13;4.63;;;15.50;99.90;;;;;;6240807;23;20072;-85
2022/10/25 10:18:48;;;;;;;16.70;5.22;;;15.40;99.90;;;;;;6240795;23;20012;-84
2022/10/25 10:21:21;;;;;;;16.13;3.75;;;15.30;99.90;;;;;;6241251;23;20016;-85
2022/10/25 10:23:58;;;;;;;12.00;3.83;;;15.30;99.90;;;;;;6240465;23;20012;-85
2022/10/25 10:26:34;;;;;;;13.23;3.85;;;15.30;99.90;;;;;;6213311;23;20066;-85
2022/10/25 10:29:19;;;;;;;18.17;4.25;;;15.40;99.90;;;;;;6213953;23;20044;-85
2022/10/25 10:31:48;;;;;;;12.98;3.63;;;15.60;99.90;;;;;;6215919;23;20087;-85
2022/10/25 10:34:42;;;;;;;8.85;3.38;;;15.80;99.90;;;;;;6242924;23;20074;-85
2022/10/25 10:37:11;;;;;;;12.10;3.95;;;16.00;99.90;;;;;;6215552;23;20087;-85
2022/10/25 10:39:47;;;;;;;9.27;3.92;;;16.00;99.90;;;;;;6215298;23;20103;-85
2022/10/25 10:42:15;;;;;;;13.32;5.00;;;16.00;99.90;;;;;;6215319;23;20071;-85
2022/10/25 10:45:00;;;;;;;14.77;3.97;;;15.80;99.90;;;;;;6215604;23;20039;-85
2022/10/25 10:47:29;;;;;;;12.98;3.58;;;15.80;99.90;;;;;;6214911;23;20012;-85
2022/10/25 10:49:55;;;;;;;12.07;3.70;;;16.00;99.90;;;;;;6215535;23;20024;-85
2022/10/25 10:52:43;;;;;;;13.43;3.30;;;16.00;99.90;;;;;;6242355;23;20012;-85
2022/10/25 10:55:29;;;;;;;16.80;4.07;;;16.00;99.90;;;;;;6215411;23;20079;-85
2022/10/25 10:58:00;;;;;;;10.85;3.53;;;16.00;99.90;;;;;;6214902;23;20369;-85
2022/10/25 11:00:28;;;;;;;15.55;3.55;;;16.10;99.90;;;;;;6242139;23;20027;-85
2022/10/25 11:02:54;;;;;;;13.90;3.08;;;16.10;99.90;;;;;;6215197;23;20016;-85
2022/10/25 11:05:36;;;;;;;11.88;3.20;;;16.20;99.90;;;;;;6240521;23;20019;-85
2022/10/25 11:08:17;;;;;;;13.30;3.67;;;16.40;99.90;;;;;;6189556;23;20008;-85
2022/10/25 11:10:42;;;;;;;12.98;3.38;;;16.50;99.90;;;;;;6242207;23;20575;-85
2022/10/25 11:13:21;;;;;;;11.30;3.08;;;16.60;99.90;;;;;;6242513;23;20114;-85
2022/10/25 11:16:36;;;;;;;10.18;3.05;;;16.60;99.90;;;;;;6215271;23;20044;-86
2022/10/25 11:19:05;;;;;;;11.90;3.08;;;16.60;99.90;;;;;;6066259;23;20025;-85
2022/10/25 11:21:49;;;;;;;8.15;3.30;;;16.60;99.90;;;;;;6090726;23;20044;-85
2022/10/25 11:24:37;;;;;;;12.68;3.60;;;16.40;99.90;;;;;;6090294;23;20011;-85
2022/10/25 11:27:16;;;;;;;13.02;2.78;;;16.40;99.90;;;;;;6066267;23;20069;-85
2022/10/25 11:29:52;;;;;;;12.63;3.00;;;16.40;99.90;;;;;;6066175;23;20022;-85
2022/10/25 11:32:53;;;;;;;10.38;3.17;;;16.30;99.90;;;;;;6066429;23;20162;-85
2022/10/25 11:35:37;;;;;;;11.95;2.85;;;16.20;99.90;;;;;;6066601;23;20028;-85
2022/10/25 11:38:30;;;;;;;10.40;3.22;;;16.10;99.90;;;;;;6089597;23;20097;-84
2022/10/25 11:41:22;;;;;;;11.10;2.47;;;16.10;99.90;;;;;;6089953;23;20497;-85
2022/10/25 11:44:12;;;;;;;10.25;2.88;;;16.20;99.90;;;;;;6065878;23;20456;-85
2022/10/25 11:47:13;;;;;;;12.95;3.15;;;16.30;99.90;;;;;;6089602;23;20014;-84
2022/10/25 11:49:53;;;;;;;10.68;2.90;;;16.60;99.90;;;;;;6155061;23;20078;-86
2022/10/25 11:52:51;;;;;;;11.98;2.35;;;16.90;99.90;;;;;;6215224;23;20111;-87
2022/10/25 11:55:44;;;;;;;8.20;2.67;;;17.30;99.90;;;;;;6242131;23;20091;-87
2022/10/25 11:58:32;;;;;;;11.68;2.35;;;17.70;99.90;;;;;;6241847;23;20016;-87
2022/10/25 12:01:05;;;;;;;9.38;2.13;;;17.90;99.90;;;;;;6214546;23;20020;-86
2022/10/25 12:03:36;;;;;;;5.53;1.65;;;18.10;99.90;;;;;;6214556;23;20012;-85
2022/10/25 12:06:25;;;;;;;8.77;2.65;;;18.10;99.90;;;;;;6214039;23;20012;-84
2022/10/25 12:09:02;;;;;;;9.48;2.20;;;18.20;99.90;;;;;;6241519;23;20016;-84
2022/10/25 12:11:32;;;;;;;10.48;2.47;;;18.00;99.90;;;;;;6215278;23;20012;-85
2022/10/25 12:14:04;;;;;;;13.93;2.55;;;17.80;99.90;;;;;;6189369;23;20043;-84
2022/10/25 12:16:33;;;;;;;11.32;2.50;;;17.50;99.90;;;;;;6241887;23;20095;-84
2022/10/25 12:19:10;;;;;;;8.60;2.28;;;17.30;99.90;;;;;;6241184;23;20012;-84
2022/10/25 12:21:50;;;;;;;8.50;2.03;;;17.20;99.90;;;;;;6241352;23;20065;-84
2022/10/25 12:24:20;;;;;;;8.00;2.08;;;17.30;99.90;;;;;;6241739;23;20012;-85
2022/10/25 12:26:48;;;;;;;6.32;1.63;;;17.50;99.90;;;;;;6214449;23;20016;-84
2022/10/25 12:29:20;;;;;;;8.93;2.53;;;17.50;99.90;;;;;;6241470;23;20016;-84
2022/10/25 12:31:53;;;;;;;8.52;1.75;;;17.40;99.90;;;;;;6242208;23;20016;-84
2022/10/25 12:34:45;;;;;;;10.15;1.70;;;17.20;99.90;;;;;;6241290;23;20088;-84
2022/10/25 12:37:38;;;;;;;7.22;2.10;;;17.00;99.90;;;;;;6241539;23;20086;-84
2022/10/25 12:40:06;;;;;;;13.20;2.58;;;16.80;99.90;;;;;;6240038;23;20016;-84
2022/10/25 12:42:43;;;;;;;8.05;2.75;;;16.60;99.90;;;;;;6241703;23;20018;-84
2022/10/25 12:45:41;;;;;;;5.72;1.92;;;16.60;99.90;;;;;;6241672;23;20095;-84
2022/10/25 12:48:19;;;;;;;9.88;2.50;;;16.40;99.90;;;;;;6214938;23;20432;-84
2022/10/25 12:51:09;;;;;;;7.57;2.72;;;16.30;99.90;;;;;;6240570;23;20020;-84
2022/10/25 12:53:34;;;;;;;7.97;2.60;;;16.60;99.90;;;;;;6241448;23;20012;-85